createdAt,value
2019-04-04T00:01:25.597Z,0.00
2019-04-04T00:02:25.835Z,0.00
2019-04-04T00:04:29.997Z,0.00
2019-04-04T00:05:30.230Z,0.00
2019-04-04T00:07:34.371Z,0.00
2019-04-04T00:08:34.605Z,0.00
2019-04-04T00:10:38.767Z,0.00
2019-04-04T00:11:39.003Z,0.00
2019-04-04T00:13:43.149Z,0.00
2019-04-04T00:14:43.893Z,0.00
2019-04-04T00:16:48.840Z,0.00
2019-04-04T00:17:47.778Z,0.00
2019-04-04T00:19:40.872Z,0.00
2019-04-04T00:20:41.105Z,0.00
2019-04-04T00:22:45.248Z,0.00
2019-04-04T00:23:45.481Z,0.00
2019-04-04T00:25:49.646Z,0.00
2019-04-04T00:26:49.880Z,0.00
2019-04-04T00:28:54.026Z,0.00
2019-04-04T00:29:54.256Z,0.00
2019-04-04T00:31:58.421Z,0.00
2019-04-04T00:32:58.654Z,0.00
2019-04-04T00:35:02.824Z,0.00
2019-04-04T00:36:03.357Z,0.00
2019-04-04T00:38:07.651Z,0.00
2019-04-04T00:39:09.146Z,0.00
2019-04-04T00:41:12.955Z,0.00
2019-04-04T00:42:11.828Z,0.00
2019-04-04T00:44:16.011Z,0.00
2019-04-04T00:45:16.203Z,0.00
2019-04-04T00:47:20.368Z,0.00
2019-04-04T00:48:20.604Z,0.00
2019-04-04T00:50:13.673Z,0.00
2019-04-04T00:51:13.906Z,0.00
2019-04-04T00:53:18.069Z,0.00
2019-04-04T00:54:18.302Z,0.00
2019-04-04T00:56:22.464Z,0.00
2019-04-04T00:57:22.699Z,0.00
2019-04-04T00:59:26.844Z,0.00
2019-04-04T01:00:27.079Z,0.00
2019-04-04T01:02:31.241Z,0.00
2019-04-04T01:03:31.475Z,0.00
2019-04-04T01:05:35.646Z,0.00
2019-04-04T01:06:35.856Z,0.00
2019-04-04T01:08:40.028Z,0.00
2019-04-04T01:09:40.253Z,0.00
2019-04-04T01:11:44.411Z,0.00
2019-04-04T01:12:44.651Z,0.00
2019-04-04T01:14:48.790Z,0.00
2019-04-04T01:15:49.025Z,0.00
2019-04-04T01:17:53.186Z,0.00
2019-04-04T01:18:53.420Z,0.00
2019-04-04T01:20:57.560Z,0.00
2019-04-04T01:21:57.795Z,0.00
2019-04-04T01:24:01.955Z,0.00
2019-04-04T01:25:02.191Z,0.00
2019-04-04T01:27:06.937Z,0.00
2019-04-04T01:28:08.286Z,0.00
2019-04-04T01:29:59.656Z,0.00
2019-04-04T01:30:59.890Z,0.00
2019-04-04T01:33:04.058Z,0.00
2019-04-04T01:34:04.291Z,0.00
2019-04-04T01:36:08.437Z,0.00
2019-04-04T01:37:08.669Z,0.00
2019-04-04T01:39:12.843Z,0.00
2019-04-04T01:40:13.075Z,0.00
2019-04-04T01:42:17.235Z,0.00
2019-04-04T01:43:17.468Z,0.00
2019-04-04T01:45:21.607Z,0.00
2019-04-04T01:46:21.839Z,0.00
2019-04-04T01:48:26.015Z,0.00
2019-04-04T01:49:26.246Z,0.00
2019-04-04T01:51:30.392Z,0.00
2019-04-04T01:52:30.628Z,0.00
2019-04-04T01:54:34.790Z,0.00
2019-04-04T01:55:35.704Z,0.00
2019-04-04T01:57:39.463Z,0.00
2019-04-04T01:58:41.767Z,0.00
2019-04-04T02:00:44.038Z,0.00
2019-04-04T02:01:46.686Z,0.00
2019-04-04T02:03:47.967Z,0.00
2019-04-04T02:04:48.202Z,0.00
2019-04-04T02:06:52.342Z,0.00
2019-04-04T02:07:52.577Z,0.00
2019-04-04T02:09:45.671Z,0.00
2019-04-04T02:10:45.908Z,0.00
2019-04-04T02:12:50.068Z,0.00
2019-04-04T02:13:50.305Z,0.00
2019-04-04T02:15:54.447Z,0.00
2019-04-04T02:16:54.683Z,0.00
2019-04-04T02:18:58.849Z,0.00
2019-04-04T02:19:59.082Z,0.00
2019-04-04T02:22:03.226Z,0.00
2019-04-04T02:23:03.459Z,0.00
2019-04-04T02:25:07.623Z,0.00
2019-04-04T02:26:07.861Z,0.00
2019-04-04T02:28:12.020Z,0.00
2019-04-04T02:29:12.257Z,0.00
2019-04-04T02:31:20.597Z,0.00
2019-04-04T02:32:16.636Z,0.00
2019-04-04T02:34:20.803Z,0.00
2019-04-04T02:35:21.051Z,0.00
2019-04-04T02:37:25.195Z,0.00
2019-04-04T02:38:28.089Z,0.00
2019-04-04T02:40:18.504Z,0.00
2019-04-04T02:41:18.739Z,0.00
2019-04-04T02:43:27.343Z,0.00
2019-04-04T02:44:23.147Z,0.00
2019-04-04T02:46:27.289Z,0.00
2019-04-04T02:47:27.524Z,0.00
2019-04-04T02:49:31.689Z,0.00
2019-04-04T02:50:34.714Z,0.00
2019-04-04T02:52:36.105Z,0.00
2019-04-04T02:53:36.299Z,0.00
2019-04-04T02:55:40.460Z,0.00
2019-04-04T02:56:40.704Z,0.00
2019-04-04T02:58:46.350Z,0.00
2019-04-04T02:59:45.109Z,0.00
2019-04-04T03:01:49.236Z,0.00
2019-04-04T03:02:49.479Z,0.00
2019-04-04T03:04:53.647Z,0.00
2019-04-04T03:05:53.875Z,0.00
2019-04-04T03:07:58.018Z,0.00
2019-04-04T03:08:58.256Z,0.00
2019-04-04T03:11:02.415Z,0.00
2019-04-04T03:12:02.651Z,0.00
2019-04-04T03:14:06.825Z,0.00
2019-04-04T03:15:09.042Z,0.00
2019-04-04T03:17:11.192Z,0.00
2019-04-04T03:18:11.429Z,0.00
2019-04-04T03:20:04.522Z,0.00
2019-04-04T03:21:04.761Z,0.00
2019-04-04T03:23:08.900Z,0.00
2019-04-04T03:24:09.150Z,0.00
2019-04-04T03:26:13.306Z,0.00
2019-04-04T03:27:13.543Z,0.00
2019-04-04T03:29:17.706Z,0.00
2019-04-04T03:30:17.967Z,0.00
2019-04-04T03:32:22.093Z,0.00
2019-04-04T03:33:29.283Z,0.00
2019-04-04T03:35:28.641Z,0.00
2019-04-04T03:36:26.733Z,0.00
2019-04-04T03:38:30.879Z,0.00
2019-04-04T03:39:31.107Z,0.00
2019-04-04T03:41:35.965Z,0.00
2019-04-04T03:42:35.512Z,0.00
2019-04-04T03:44:39.671Z,0.00
2019-04-04T03:45:39.909Z,0.00
2019-04-04T03:47:44.837Z,0.00
2019-04-04T03:48:44.286Z,0.00
2019-04-04T03:50:48.454Z,0.00
2019-04-04T03:51:48.688Z,0.00
2019-04-04T03:53:52.846Z,0.00
2019-04-04T03:54:56.233Z,0.00
2019-04-04T03:56:57.232Z,0.00
2019-04-04T03:57:57.471Z,0.00
2019-04-04T03:59:50.573Z,0.00
2019-04-04T04:00:50.820Z,0.00
2019-04-04T04:02:54.955Z,0.00
2019-04-04T04:03:55.936Z,0.00
2019-04-04T04:05:59.360Z,0.00
2019-04-04T04:06:59.597Z,0.00
2019-04-04T04:09:03.739Z,0.00
2019-04-04T04:10:03.972Z,0.00
2019-04-04T04:12:11.156Z,0.00
2019-04-04T04:13:08.383Z,0.00
2019-04-04T04:15:12.547Z,0.00
2019-04-04T04:16:12.783Z,0.00
2019-04-04T04:18:20.087Z,0.00
2019-04-04T04:19:17.159Z,0.00
2019-04-04T04:21:21.324Z,0.00
2019-04-04T04:22:21.559Z,0.00
2019-04-04T04:24:26.787Z,0.00
2019-04-04T04:25:25.944Z,0.00
2019-04-04T04:27:30.102Z,0.00
2019-04-04T04:28:30.340Z,0.00
2019-04-04T04:30:23.447Z,0.00
2019-04-04T04:31:23.682Z,0.00
2019-04-04T04:33:29.387Z,0.00
2019-04-04T04:34:28.074Z,0.00
2019-04-04T04:36:32.226Z,0.00
2019-04-04T04:37:32.463Z,0.00
2019-04-04T04:39:41.011Z,0.00
2019-04-04T04:40:36.841Z,0.00
2019-04-04T04:42:41.012Z,0.00
2019-04-04T04:43:41.245Z,0.00
2019-04-04T04:45:45.453Z,0.00
2019-04-04T04:46:49.756Z,0.00
2019-04-04T04:48:49.782Z,0.00
2019-04-04T04:49:50.027Z,0.00
2019-04-04T04:51:54.191Z,0.00
2019-04-04T04:52:54.504Z,0.19
2019-04-04T04:54:58.564Z,0.28
2019-04-04T04:56:00.517Z,0.47
2019-04-04T04:58:02.978Z,0.95
2019-04-04T04:59:03.212Z,0.76
2019-04-04T05:01:07.385Z,1.51
2019-04-04T05:02:07.631Z,1.23
2019-04-04T05:04:11.770Z,1.99
2019-04-04T05:05:12.007Z,2.27
2019-04-04T05:07:16.172Z,2.84
2019-04-04T05:08:16.409Z,2.56
2019-04-04T05:10:09.478Z,3.22
2019-04-04T05:11:09.713Z,3.31
2019-04-04T05:13:13.881Z,3.50
2019-04-04T05:14:14.117Z,4.07
2019-04-04T05:16:18.292Z,4.17
2019-04-04T05:17:18.525Z,4.45
2019-04-04T05:19:22.667Z,4.64
2019-04-04T05:20:23.136Z,5.11
2019-04-04T05:22:27.072Z,5.40
2019-04-04T05:23:27.330Z,5.59
2019-04-04T05:25:31.900Z,5.97
2019-04-04T05:26:32.258Z,5.68
2019-04-04T05:28:35.884Z,6.35
2019-04-04T05:29:36.126Z,6.82
2019-04-04T05:31:40.284Z,7.58
2019-04-04T05:32:40.519Z,7.48
2019-04-04T05:34:44.671Z,8.44
2019-04-04T05:35:44.904Z,8.34
2019-04-04T05:37:49.083Z,9.38
2019-04-04T05:38:49.313Z,9.57
2019-04-04T05:40:55.342Z,10.14
2019-04-04T05:41:53.695Z,10.33
2019-04-04T05:43:57.879Z,10.99
2019-04-04T05:44:58.105Z,10.90
2019-04-04T05:47:02.270Z,11.00
2019-04-04T05:48:02.505Z,11.29
2019-04-04T05:49:55.583Z,11.85
2019-04-04T05:50:55.820Z,11.85
2019-04-04T05:52:59.989Z,12.23
2019-04-04T05:54:00.241Z,12.23
2019-04-04T05:56:06.350Z,12.80
2019-04-04T05:57:04.618Z,12.90
2019-04-04T05:59:08.772Z,13.46
2019-04-04T06:00:09.009Z,13.18
2019-04-04T06:02:13.177Z,13.28
2019-04-04T06:03:15.158Z,12.99
2019-04-04T06:05:17.558Z,13.28
2019-04-04T06:06:17.794Z,13.46
2019-04-04T06:08:21.963Z,13.18
2019-04-04T06:09:22.227Z,13.18
2019-04-04T06:11:26.371Z,13.46
2019-04-04T06:12:26.605Z,13.37
2019-04-04T06:14:30.802Z,13.65
2019-04-04T06:15:32.237Z,13.46
2019-04-04T06:17:35.175Z,13.56
2019-04-04T06:18:35.409Z,13.56
2019-04-04T06:20:39.565Z,13.37
2019-04-04T06:21:39.796Z,13.46
2019-04-04T06:23:43.964Z,13.75
2019-04-04T06:24:44.200Z,14.22
2019-04-04T06:26:48.350Z,14.51
2019-04-04T06:27:48.585Z,14.41
2019-04-04T06:29:41.746Z,14.51
2019-04-04T06:30:43.578Z,14.70
2019-04-04T06:32:46.095Z,14.03
2019-04-04T06:33:46.329Z,14.03
2019-04-04T06:35:50.486Z,13.65
2019-04-04T06:36:50.723Z,13.65
2019-04-04T06:38:54.903Z,13.75
2019-04-04T06:39:58.454Z,13.84
2019-04-04T06:41:59.275Z,13.84
2019-04-04T06:42:59.505Z,13.46
2019-04-04T06:45:03.674Z,13.18
2019-04-04T06:46:03.910Z,13.65
2019-04-04T06:48:09.102Z,13.37
2019-04-04T06:49:09.341Z,13.37
2019-04-04T06:51:14.221Z,13.28
2019-04-04T06:52:13.726Z,12.99
2019-04-04T06:54:17.899Z,12.62
2019-04-04T06:55:18.131Z,12.62
2019-04-04T06:57:22.276Z,12.62
2019-04-04T06:58:22.514Z,12.71
2019-04-04T07:00:16.513Z,13.19
2019-04-04T07:01:15.838Z,13.19
2019-04-04T07:03:20.006Z,13.19
2019-04-04T07:04:20.240Z,13.28
2019-04-04T07:06:24.391Z,13.28
2019-04-04T07:07:24.626Z,13.66
2019-04-04T07:09:28.790Z,14.42
2019-04-04T07:10:29.028Z,14.80
2019-04-04T07:12:33.170Z,14.32
2019-04-04T07:13:42.112Z,14.13
2019-04-04T07:15:46.631Z,13.66
2019-04-04T07:16:37.806Z,12.71
2019-04-04T07:18:43.041Z,12.81
2019-04-04T07:19:43.994Z,12.99
2019-04-04T07:21:46.354Z,13.76
2019-04-04T07:22:46.595Z,13.38
2019-04-04T07:24:50.759Z,13.66
2019-04-04T07:25:53.425Z,13.48
2019-04-04T07:27:55.136Z,14.61
2019-04-04T07:28:55.374Z,15.28
2019-04-04T07:31:01.777Z,15.66
2019-04-04T07:31:59.777Z,15.85
2019-04-04T07:34:03.943Z,16.23
2019-04-04T07:35:04.182Z,16.33
2019-04-04T07:37:08.332Z,15.37
2019-04-04T07:38:08.561Z,15.56
2019-04-04T07:40:03.440Z,15.08
2019-04-04T07:41:01.891Z,14.99
2019-04-04T07:43:08.502Z,14.81
2019-04-04T07:44:06.298Z,14.90
2019-04-04T07:46:16.342Z,15.66
2019-04-04T07:47:10.681Z,15.28
2019-04-04T07:49:14.855Z,14.71
2019-04-04T07:50:15.084Z,15.08
2019-04-04T07:52:19.229Z,14.33
2019-04-04T07:53:19.464Z,13.95
2019-04-04T07:55:24.643Z,15.09
2019-04-04T07:56:24.880Z,15.00
2019-04-04T07:58:29.052Z,15.66
2019-04-04T07:59:31.114Z,15.47
2019-04-04T08:01:33.434Z,14.43
2019-04-04T08:02:33.669Z,14.24
2019-04-04T08:04:37.846Z,13.20
2019-04-04T08:05:38.078Z,13.39
2019-04-04T08:07:42.222Z,13.39
2019-04-04T08:08:42.460Z,14.43
2019-04-04T08:10:46.624Z,14.53
2019-04-04T08:11:46.858Z,14.81
2019-04-04T08:13:51.044Z,16.61
2019-04-04T08:14:51.339Z,16.71
2019-04-04T08:16:55.431Z,15.77
2019-04-04T08:17:55.665Z,16.52
2019-04-04T08:19:59.154Z,15.66
2019-04-04T08:20:48.998Z,15.48
2019-04-04T08:22:54.162Z,14.43
2019-04-04T08:23:54.401Z,14.34
2019-04-04T08:25:58.566Z,15.00
2019-04-04T08:26:58.800Z,14.43
2019-04-04T08:29:02.989Z,14.91
2019-04-04T08:30:03.225Z,14.81
2019-04-04T08:32:07.382Z,13.77
2019-04-04T08:33:07.626Z,14.06
2019-04-04T08:35:11.784Z,16.72
2019-04-04T08:36:12.021Z,18.04
2019-04-04T08:38:16.165Z,22.03
2019-04-04T08:39:16.400Z,21.84
2019-04-04T08:41:20.567Z,21.28
2019-04-04T08:42:20.805Z,20.14
2019-04-04T08:44:24.983Z,20.81
2019-04-04T08:45:25.222Z,21.28
2019-04-04T08:47:29.365Z,21.00
2019-04-04T08:48:29.600Z,21.56
2019-04-04T08:50:22.712Z,21.37
2019-04-04T08:51:22.948Z,20.23
2019-04-04T08:53:38.870Z,17.95
2019-04-04T08:54:27.333Z,17.10
2019-04-04T08:56:31.506Z,15.20
2019-04-04T08:57:31.741Z,15.20
2019-04-04T08:59:35.909Z,13.10
2019-04-04T09:00:36.144Z,13.39
2019-04-04T09:02:40.290Z,15.00
2019-04-04T09:03:40.535Z,15.00
2019-04-04T09:05:44.697Z,15.10
2019-04-04T09:06:44.933Z,14.62
2019-04-04T09:08:49.098Z,14.72
2019-04-04T09:09:49.370Z,15.00
2019-04-04T09:11:53.500Z,14.43
2019-04-04T09:12:53.740Z,14.34
2019-04-04T09:14:57.904Z,13.48
2019-04-04T09:15:58.143Z,14.62
2019-04-04T09:18:02.298Z,16.52
2019-04-04T09:19:02.537Z,16.35
2019-04-04T09:21:06.703Z,18.05
2019-04-04T09:22:10.604Z,18.34
2019-04-04T09:24:11.097Z,19.29
2019-04-04T09:25:11.332Z,20.34
2019-04-04T09:27:16.516Z,20.81
2019-04-04T09:28:16.752Z,22.05
2019-04-04T09:30:09.865Z,21.67
2019-04-04T09:31:10.091Z,20.90
2019-04-04T09:33:14.241Z,19.10
2019-04-04T09:34:14.474Z,17.86
2019-04-04T09:36:18.646Z,17.87
2019-04-04T09:37:18.884Z,18.54
2019-04-04T09:39:23.028Z,21.11
2019-04-04T09:40:23.266Z,22.91
2019-04-04T09:42:27.447Z,21.59
2019-04-04T09:43:27.681Z,21.88
2019-04-04T09:45:31.903Z,22.91
2019-04-04T09:46:32.096Z,22.91
2019-04-04T09:48:36.247Z,23.40
2019-04-04T09:49:36.486Z,21.59
2019-04-04T09:51:40.657Z,24.63
2019-04-04T09:52:40.907Z,24.35
2019-04-04T09:54:45.050Z,26.06
2019-04-04T09:55:45.282Z,31.10
2019-04-04T09:57:49.459Z,24.44
2019-04-04T09:58:49.698Z,26.93
2019-04-04T10:00:53.872Z,35.21
2019-04-04T10:01:54.112Z,37.88
2019-04-04T10:03:58.259Z,30.26
2019-04-04T10:04:58.498Z,31.50
2019-04-04T10:07:02.668Z,31.79
2019-04-04T10:08:02.908Z,32.83
2019-04-04T10:09:55.988Z,27.69
2019-04-04T10:10:56.225Z,29.96
2019-04-04T10:13:00.399Z,28.82
2019-04-04T10:14:00.637Z,25.68
2019-04-04T10:16:04.810Z,23.02
2019-04-04T10:17:05.050Z,21.21
2019-04-04T10:19:09.198Z,20.26
2019-04-04T10:20:09.437Z,20.06
2019-04-04T10:22:13.611Z,18.26
2019-04-04T10:23:13.849Z,19.30
2019-04-04T10:25:18.001Z,21.39
2019-04-04T10:26:18.238Z,19.68
2019-04-04T10:28:23.443Z,16.35
2019-04-04T10:29:22.657Z,15.69
2019-04-04T10:31:26.830Z,14.73
2019-04-04T10:32:27.067Z,15.11
2019-04-04T10:34:31.236Z,17.11
2019-04-04T10:35:31.475Z,16.45
2019-04-04T10:37:35.670Z,17.21
2019-04-04T10:38:35.879Z,16.83
2019-04-04T10:40:40.031Z,13.69
2019-04-04T10:41:40.265Z,14.83
2019-04-04T10:43:44.442Z,12.74
2019-04-04T10:44:44.673Z,12.26
2019-04-04T10:46:48.848Z,14.73
2019-04-04T10:47:49.088Z,13.40
2019-04-04T10:49:42.166Z,14.83
2019-04-04T10:50:42.403Z,15.11
2019-04-04T10:52:46.593Z,16.92
2019-04-04T10:53:46.829Z,16.25
2019-04-04T10:55:50.985Z,15.03
2019-04-04T10:56:51.216Z,15.88
2019-04-04T10:58:55.398Z,17.60
2019-04-04T10:59:55.634Z,17.31
2019-04-04T11:02:00.940Z,18.64
2019-04-04T11:03:00.043Z,19.12
2019-04-04T11:05:04.196Z,16.27
2019-04-04T11:06:04.429Z,24.82
2019-04-04T11:08:08.597Z,20.64
2019-04-04T11:09:08.828Z,19.59
2019-04-04T11:11:13.000Z,17.60
2019-04-04T11:12:13.247Z,19.88
2019-04-04T11:14:17.412Z,15.50
2019-04-04T11:15:17.650Z,19.13
2019-04-04T11:17:21.841Z,18.08
2019-04-04T11:18:22.077Z,16.65
2019-04-04T11:20:15.160Z,18.46
2019-04-04T11:21:15.395Z,18.94
2019-04-04T11:23:19.575Z,23.79
2019-04-04T11:24:19.825Z,23.60
2019-04-04T11:26:23.975Z,27.69
2019-04-04T11:27:24.212Z,25.52
2019-04-04T11:29:28.443Z,27.69
2019-04-04T11:30:28.679Z,27.60
2019-04-04T11:32:32.857Z,20.76
2019-04-04T11:33:33.159Z,21.33
2019-04-04T11:35:37.320Z,23.04
2019-04-04T11:36:37.568Z,22.94
2019-04-04T11:38:44.075Z,19.13
2019-04-04T11:39:53.686Z,18.37
2019-04-04T11:41:46.126Z,17.22
2019-04-04T11:42:46.366Z,14.47
2019-04-04T11:44:50.542Z,11.41
2019-04-04T11:45:50.781Z,10.46
2019-04-04T11:47:54.953Z,11.70
2019-04-04T11:48:55.195Z,10.56
2019-04-04T11:50:59.350Z,8.08
2019-04-04T11:51:59.590Z,8.65
2019-04-04T11:54:03.769Z,7.13
2019-04-04T11:55:04.009Z,7.13
2019-04-04T11:57:08.150Z,6.75
2019-04-04T11:58:08.410Z,6.46
2019-04-04T12:00:01.502Z,5.32
2019-04-04T12:01:01.738Z,6.27
2019-04-04T12:03:05.917Z,6.18
2019-04-04T12:04:06.181Z,8.27
2019-04-04T12:06:10.353Z,6.46
2019-04-04T12:07:10.590Z,8.08
2019-04-04T12:09:14.767Z,6.46
2019-04-04T12:10:15.001Z,5.23
2019-04-04T12:12:19.162Z,6.85
2019-04-04T12:13:19.399Z,7.04
2019-04-04T12:15:23.575Z,5.23
2019-04-04T12:16:23.811Z,5.13
2019-04-04T12:18:27.991Z,5.99
2019-04-04T12:19:28.226Z,6.27
2019-04-04T12:21:32.375Z,7.99
2019-04-04T12:22:32.612Z,7.89
2019-04-04T12:24:36.782Z,8.75
2019-04-04T12:25:37.023Z,9.22
2019-04-04T12:27:41.177Z,9.80
2019-04-04T12:28:41.413Z,8.18
2019-04-04T12:30:45.589Z,5.61
2019-04-04T12:31:45.827Z,6.27
2019-04-04T12:33:50.072Z,7.80
2019-04-04T12:34:50.384Z,5.99
2019-04-04T12:36:54.642Z,6.27
2019-04-04T12:37:54.931Z,6.46
2019-04-04T12:39:48.037Z,8.66
2019-04-04T12:40:48.273Z,7.90
2019-04-04T12:42:52.447Z,12.75
2019-04-04T12:43:52.795Z,14.56
2019-04-04T12:45:57.140Z,11.42
2019-04-04T12:46:57.375Z,12.56
2019-04-04T12:49:01.688Z,13.51
2019-04-04T12:50:01.921Z,13.23
2019-04-04T12:52:06.079Z,13.32
2019-04-04T12:53:06.318Z,14.47
2019-04-04T12:55:11.647Z,13.60
2019-04-04T12:56:12.035Z,11.23
2019-04-04T12:58:16.203Z,9.23
2019-04-04T12:59:16.441Z,11.42
2019-04-04T13:01:21.455Z,10.28
2019-04-04T13:02:21.116Z,11.32
2019-04-04T13:04:31.641Z,15.23
2019-04-04T13:05:25.772Z,12.09
2019-04-04T13:07:30.000Z,10.66
2019-04-04T13:08:30.643Z,14.28
2019-04-04T13:10:33.048Z,10.75
2019-04-04T13:11:23.774Z,11.42
2019-04-04T13:13:27.933Z,9.52
2019-04-04T13:14:28.223Z,8.18
2019-04-04T13:16:32.440Z,8.66
2019-04-04T13:17:32.736Z,7.23
2019-04-04T13:19:37.061Z,4.85
2019-04-04T13:20:37.303Z,5.90
2019-04-04T13:22:41.445Z,5.33
2019-04-04T13:23:41.684Z,5.52
2019-04-04T13:25:45.854Z,7.23
2019-04-04T13:26:46.092Z,8.56
2019-04-04T13:28:50.300Z,5.71
2019-04-04T13:29:50.671Z,5.99
2019-04-04T13:31:54.991Z,4.37
2019-04-04T13:32:55.215Z,5.99
2019-04-04T13:35:00.002Z,5.90
2019-04-04T13:35:59.625Z,8.37
2019-04-04T13:38:03.775Z,7.42
2019-04-04T13:39:04.013Z,8.94
2019-04-04T13:41:08.186Z,10.08
2019-04-04T13:42:08.422Z,8.66
2019-04-04T13:44:12.575Z,13.04
2019-04-04T13:45:12.815Z,11.71
2019-04-04T13:47:16.987Z,18.48
2019-04-04T13:48:17.223Z,22.48
2019-04-04T13:50:12.473Z,21.72
2019-04-04T13:51:10.562Z,19.15
2019-04-04T13:53:14.742Z,20.49
2019-04-04T13:54:14.980Z,22.59
2019-04-04T13:56:19.152Z,22.77
2019-04-04T13:57:19.393Z,20.68
2019-04-04T13:59:23.634Z,25.35
2019-04-04T14:00:23.782Z,30.52
2019-04-04T14:02:27.959Z,33.66
2019-04-04T14:03:28.200Z,32.52
2019-04-04T14:05:32.353Z,32.04
2019-04-04T14:06:32.592Z,28.03
2019-04-04T14:08:39.151Z,33.28
2019-04-04T14:09:37.002Z,29.07
2019-04-04T14:11:42.029Z,19.54
2019-04-04T14:12:41.428Z,20.01
2019-04-04T14:14:45.576Z,22.30
2019-04-04T14:15:45.813Z,22.20
2019-04-04T14:17:49.992Z,17.54
2019-04-04T14:18:50.231Z,19.06
2019-04-04T14:21:03.440Z,21.92
2019-04-04T14:21:54.621Z,19.81
2019-04-04T14:24:12.072Z,19.43
2019-04-04T14:24:59.038Z,16.77
2019-04-04T14:27:03.219Z,17.14
2019-04-04T14:28:03.455Z,14.00
2019-04-04T14:29:56.536Z,13.62
2019-04-04T14:30:56.772Z,10.09
2019-04-04T14:33:00.944Z,10.57
2019-04-04T14:34:01.184Z,10.00
2019-04-04T14:36:05.338Z,8.95
2019-04-04T14:37:05.577Z,10.00
2019-04-04T14:39:09.750Z,8.76
2019-04-04T14:40:09.990Z,8.57
2019-04-04T14:42:14.160Z,9.05
2019-04-04T14:43:14.399Z,9.14
2019-04-04T14:45:18.551Z,9.52
2019-04-04T14:46:18.789Z,8.95
2019-04-04T14:48:22.983Z,8.76
2019-04-04T14:49:23.210Z,7.62
2019-04-04T14:51:27.362Z,7.33
2019-04-04T14:52:27.602Z,8.18
2019-04-04T14:54:31.780Z,10.57
2019-04-04T14:55:32.021Z,8.18
2019-04-04T14:57:36.195Z,8.18
2019-04-04T14:58:36.430Z,8.37
2019-04-04T15:00:40.594Z,6.76
2019-04-04T15:01:40.831Z,5.71
2019-04-04T15:03:45.005Z,7.04
2019-04-04T15:04:45.241Z,5.80
2019-04-04T15:06:49.393Z,7.80
2019-04-04T15:07:49.629Z,5.71
2019-04-04T15:09:42.733Z,5.23
2019-04-04T15:10:42.973Z,4.66
2019-04-04T15:12:47.147Z,6.76
2019-04-04T15:13:47.382Z,5.04
2019-04-04T15:15:51.537Z,4.94
2019-04-04T15:16:51.774Z,5.99
2019-04-04T15:18:55.948Z,5.14
2019-04-04T15:19:56.191Z,5.14
2019-04-04T15:22:00.341Z,3.42
2019-04-04T15:23:00.593Z,1.81
2019-04-04T15:25:04.754Z,1.71
2019-04-04T15:26:04.990Z,0.85
2019-04-04T15:28:09.159Z,0.00
2019-04-04T15:29:09.397Z,0.00
2019-04-04T15:31:13.544Z,0.00
2019-04-04T15:32:13.787Z,0.00
2019-04-04T15:34:17.967Z,0.00
2019-04-04T15:35:18.205Z,0.00
2019-04-04T15:37:22.351Z,0.00
2019-04-04T15:38:22.589Z,0.00
2019-04-04T15:40:15.695Z,0.00
2019-04-04T15:41:15.927Z,0.00
2019-04-04T15:43:21.109Z,0.00
2019-04-04T15:44:21.344Z,0.00
2019-04-04T15:46:25.489Z,0.00
2019-04-04T15:47:25.725Z,0.00
2019-04-04T15:49:29.897Z,0.00
2019-04-04T15:50:30.129Z,0.00
2019-04-04T15:52:34.283Z,0.00
2019-04-04T15:53:34.526Z,0.00
2019-04-04T15:55:38.704Z,0.00
2019-04-04T15:56:38.932Z,0.00
2019-04-04T15:58:43.099Z,0.00
2019-04-04T15:59:43.339Z,0.00
2019-04-04T16:01:47.484Z,0.00
2019-04-04T16:02:47.720Z,0.00
2019-04-04T16:04:51.894Z,0.00
2019-04-04T16:05:52.127Z,0.00
2019-04-04T16:07:56.274Z,0.00
2019-04-04T16:08:56.516Z,0.00
2019-04-04T16:11:00.683Z,0.00
2019-04-04T16:12:00.918Z,0.00
2019-04-04T16:14:05.085Z,0.00
2019-04-04T16:15:05.329Z,0.00
2019-04-04T16:17:09.471Z,0.00
2019-04-04T16:18:09.707Z,0.00
2019-04-04T16:20:02.801Z,0.00
2019-04-04T16:21:03.037Z,0.00
2019-04-04T16:23:07.185Z,0.00
2019-04-04T16:24:07.421Z,0.00
2019-04-04T16:26:11.591Z,0.00
2019-04-04T16:27:11.837Z,0.00
2019-04-04T16:29:16.012Z,0.00
2019-04-04T16:30:16.242Z,0.00
2019-04-04T16:32:20.392Z,0.00
2019-04-04T16:33:20.635Z,0.00
2019-04-04T16:35:24.802Z,0.00
2019-04-04T16:36:25.041Z,0.00
2019-04-04T16:38:29.186Z,0.00
2019-04-04T16:39:29.424Z,0.00
2019-04-04T16:41:33.588Z,0.00
2019-04-04T16:42:33.906Z,0.00
2019-04-04T16:44:38.073Z,0.00
2019-04-04T16:45:39.135Z,0.00
2019-04-04T16:47:42.597Z,0.00
2019-04-04T16:48:42.842Z,0.00
2019-04-04T16:50:47.002Z,0.00
2019-04-04T16:51:47.241Z,0.00
2019-04-04T16:53:51.400Z,0.00
2019-04-04T16:54:53.702Z,0.00
2019-04-04T16:56:55.801Z,0.00
2019-04-04T16:57:56.036Z,0.00
2019-04-04T16:59:49.134Z,0.00
2019-04-04T17:00:49.371Z,0.00
2019-04-04T17:02:53.604Z,0.00
2019-04-04T17:04:01.506Z,0.00
2019-04-04T17:05:57.963Z,0.00
2019-04-04T17:06:58.204Z,0.00
2019-04-04T17:09:02.355Z,0.00
2019-04-04T17:10:02.590Z,0.00
2019-04-04T17:12:14.930Z,0.00
2019-04-04T17:13:06.992Z,0.00
2019-04-04T17:15:11.160Z,0.00
2019-04-04T17:16:11.399Z,0.00
2019-04-04T17:18:15.538Z,0.00
2019-04-04T17:19:15.792Z,0.00
2019-04-04T17:21:19.977Z,0.00
2019-04-04T17:22:20.208Z,0.00
2019-04-04T17:24:25.408Z,0.00
2019-04-04T17:25:25.634Z,0.00
2019-04-04T17:27:29.810Z,0.00
2019-04-04T17:28:30.043Z,0.00
2019-04-04T17:30:23.137Z,0.00
2019-04-04T17:31:23.972Z,0.00
2019-04-04T17:33:27.530Z,0.00
2019-04-04T17:34:27.766Z,0.00
2019-04-04T17:36:31.940Z,0.00
2019-04-04T17:37:32.173Z,0.00
2019-04-04T17:39:36.516Z,0.00
2019-04-04T17:40:36.633Z,0.00
2019-04-04T17:42:40.878Z,0.00
2019-04-04T17:43:41.359Z,0.00
2019-04-04T17:45:45.332Z,0.00
2019-04-04T17:46:46.002Z,0.00
2019-04-04T17:48:49.718Z,0.00
2019-04-04T17:49:50.238Z,0.00
2019-04-04T17:51:54.206Z,0.00
2019-04-04T17:52:54.509Z,0.00
2019-04-04T17:54:58.916Z,0.00
2019-04-04T17:55:59.465Z,0.00
2019-04-04T17:58:03.450Z,0.00
2019-04-04T17:59:03.908Z,0.00
2019-04-04T18:01:07.904Z,0.00
2019-04-04T18:02:08.215Z,0.00
2019-04-04T18:04:12.359Z,0.00
2019-04-04T18:05:12.595Z,0.00
2019-04-04T18:07:16.783Z,0.00
2019-04-04T18:08:17.078Z,0.00
2019-04-04T18:10:10.163Z,0.00
2019-04-04T18:11:10.445Z,0.00
2019-04-04T18:13:14.680Z,0.00
2019-04-04T18:14:14.952Z,0.00
2019-04-04T18:16:19.129Z,0.00
2019-04-04T18:17:19.365Z,0.00
2019-04-04T18:19:23.517Z,0.00
2019-04-04T18:20:23.749Z,0.00
2019-04-04T18:22:27.976Z,0.00
2019-04-04T18:23:28.253Z,0.00
2019-04-04T18:25:32.394Z,0.00
2019-04-04T18:26:32.629Z,0.00
2019-04-04T18:28:39.349Z,0.00
2019-04-04T18:29:37.035Z,0.00
2019-04-04T18:31:41.209Z,0.00
2019-04-04T18:32:41.440Z,0.00
2019-04-04T18:34:45.584Z,0.00
2019-04-04T18:35:46.197Z,0.00
2019-04-04T18:37:49.991Z,0.00
2019-04-04T18:38:50.225Z,0.00
2019-04-04T18:40:54.374Z,0.00
2019-04-04T18:41:54.609Z,0.00
2019-04-04T18:43:58.779Z,0.00
2019-04-04T18:44:59.017Z,0.00
2019-04-04T18:47:03.181Z,0.00
2019-04-04T18:48:03.431Z,0.00
2019-04-04T18:49:56.493Z,0.00
2019-04-04T18:50:56.725Z,0.00
2019-04-04T18:53:00.894Z,0.00
2019-04-04T18:54:01.135Z,0.00
2019-04-04T18:56:05.282Z,0.00
2019-04-04T18:57:05.520Z,0.00
2019-04-04T18:59:09.688Z,0.00
2019-04-04T19:00:09.964Z,0.00
2019-04-04T19:02:14.094Z,0.00
2019-04-04T19:03:14.330Z,0.00
2019-04-04T19:05:18.479Z,0.00
2019-04-04T19:06:18.717Z,0.00
2019-04-04T19:08:22.889Z,0.00
2019-04-04T19:09:23.123Z,0.00
2019-04-04T19:11:27.273Z,0.00
2019-04-04T19:12:27.510Z,0.00
2019-04-04T19:14:31.678Z,0.00
2019-04-04T19:15:31.916Z,0.00
2019-04-04T19:17:36.088Z,0.00
2019-04-04T19:18:36.322Z,0.00
2019-04-04T19:20:40.471Z,0.00
2019-04-04T19:21:40.704Z,0.00
2019-04-04T19:23:49.520Z,0.00
2019-04-04T19:24:45.113Z,0.00
2019-04-04T19:26:49.259Z,0.00
2019-04-04T19:27:49.498Z,0.00
2019-04-04T19:29:42.598Z,0.00
2019-04-04T19:30:42.836Z,0.00
2019-04-04T19:32:47.007Z,0.00
2019-04-04T19:33:47.240Z,0.00
2019-04-04T19:35:51.391Z,0.00
2019-04-04T19:36:51.628Z,0.00
2019-04-04T19:38:55.795Z,0.00
2019-04-04T19:39:56.032Z,0.00
2019-04-04T19:42:00.186Z,0.00
2019-04-04T19:43:00.423Z,0.00
2019-04-04T19:45:04.600Z,0.00
2019-04-04T19:46:04.834Z,0.00
2019-04-04T19:48:09.008Z,0.00
2019-04-04T19:49:09.243Z,0.00
2019-04-04T19:51:13.392Z,0.00
2019-04-04T19:52:13.627Z,0.00
2019-04-04T19:54:19.213Z,0.00
2019-04-04T19:55:18.035Z,0.00
2019-04-04T19:57:22.186Z,0.00
2019-04-04T19:58:22.417Z,0.00
2019-04-04T20:00:15.512Z,0.00
2019-04-04T20:01:15.748Z,0.00
2019-04-04T20:03:19.919Z,0.00
2019-04-04T20:04:20.155Z,0.00
2019-04-04T20:06:24.307Z,0.00